Time;durP1;ratioP1;P1;durP2;ratioP2;P2;SDS_P1;SDS_P2;PMS_P1;PMS_P2;Temp;Humidity;BMP_temperature;BMP_pressure;BME280_temperature;BME280_humidity;BME280_pressure;Samples;Min_cycle;Max_cycle;Signal;HPM_P1;HPM_P2
2022/05/16 00:01:25;;;;;;;11.38;3.92;;;;;;;18.50;50.29;101515.34;5209468;28;20486;-51
2022/05/16 00:03:59;;;;;;;14.27;3.95;;;;;;;18.50;49.98;101504.66;5183652;28;20409;-52
2022/05/16 00:06:31;;;;;;;16.63;5.22;;;;;;;18.47;49.93;101505.03;5192785;28;20746;-45
2022/05/16 00:09:05;;;;;;;17.02;4.38;;;;;;;18.48;49.91;101502.16;5209775;28;20620;-53
2022/05/16 00:11:38;;;;;;;16.17;4.38;;;;;;;18.44;49.77;101523.09;5202538;28;20451;-53
2022/05/16 00:14:11;;;;;;;14.23;4.45;;;;;;;18.38;49.74;101486.38;5218223;28;20482;-54
2022/05/16 00:16:45;;;;;;;13.15;4.22;;;;;;;18.43;49.50;101505.38;5212090;28;20430;-50
2022/05/16 00:19:21;;;;;;;14.40;4.57;;;;;;;18.38;49.54;101507.78;5211693;28;20959;-51
2022/05/16 00:21:54;;;;;;;16.33;4.60;;;;;;;17.94;49.47;101441.78;5209484;28;20563;-50
2022/05/16 00:24:29;;;;;;;14.73;4.47;;;;;;;18.29;49.43;101490.16;5211270;28;20462;-50
2022/05/16 00:27:05;;;;;;;15.00;4.38;;;;;;;18.11;49.20;101457.63;5204650;28;20427;-53
2022/05/16 00:29:40;;;;;;;13.20;3.58;;;;;;;18.18;49.20;101461.22;5207465;28;20543;-53
2022/05/16 00:32:15;;;;;;;13.07;4.10;;;;;;;18.19;49.15;101477.06;5192392;28;20767;-53
2022/05/16 00:34:49;;;;;;;15.43;4.43;;;;;;;18.26;49.09;101508.44;5213704;28;20863;-49
2022/05/16 00:37:21;;;;;;;22.30;4.50;;;;;;;18.20;48.99;101491.28;5209558;28;20563;-52
2022/05/16 00:39:54;;;;;;;13.02;4.25;;;;;;;18.21;48.89;101479.59;5201790;28;20413;-49
2022/05/16 00:42:26;;;;;;;18.17;4.60;;;;;;;18.18;48.86;101479.94;5203578;28;20433;-51
2022/05/16 00:44:59;;;;;;;14.93;4.05;;;;;;;18.18;48.78;101479.94;5206533;28;20409;-52
2022/05/16 00:47:33;;;;;;;14.07;4.40;;;;;;;18.17;48.83;101488.97;5213496;28;25024;-48
2022/05/16 00:50:09;;;;;;;16.08;4.70;;;;;;;18.10;48.84;101478.19;5210372;28;20423;-51
2022/05/16 00:52:45;;;;;;;12.40;4.00;;;;;;;18.11;48.74;101473.66;5210437;28;20520;-51
2022/05/16 00:55:22;;;;;;;12.43;4.28;;;;;;;18.00;48.67;101455.41;5206285;28;20514;-50
2022/05/16 00:57:58;;;;;;;15.85;4.57;;;;;;;17.79;48.64;101424.91;5216239;28;20407;-50
2022/05/16 01:00:34;;;;;;;14.23;4.43;;;;;;;17.97;48.66;101460.09;5205191;28;20544;-52
2022/05/16 01:06:03;;;;;;;12.35;4.40;;;;;;;17.94;48.69;101457.81;5211828;28;20421;-45
2022/05/16 01:08:43;;;;;;;13.10;4.07;;;;;;;17.86;48.61;101444.50;5210640;28;20417;-51
2022/05/16 01:11:16;;;;;;;12.77;4.20;;;;;;;17.79;48.70;101440.94;5198608;28;20487;-53
2022/05/16 01:13:49;;;;;;;15.68;4.60;;;;;;;17.79;48.72;101443.59;5208433;28;20473;-54
2022/05/16 01:16:22;;;;;;;16.23;4.05;;;;;;;17.73;48.85;101444.28;5209913;28;20417;-50
2022/05/16 01:18:54;;;;;;;14.63;4.10;;;;;;;17.68;48.76;101441.31;5201989;28;20496;-52
2022/05/16 01:21:40;;;;;;;14.50;4.68;;;;;;;17.64;48.93;101424.00;5220266;28;20433;-54
2022/05/16 01:24:18;;;;;;;14.00;4.45;;;;;;;17.66;48.96;101438.03;5203014;28;20444;-51
2022/05/16 01:26:51;;;;;;;15.02;4.70;;;;;;;17.60;48.97;101433.41;5208760;28;20475;-54
2022/05/16 01:29:25;;;;;;;15.07;4.35;;;;;;;17.47;49.02;101405.47;5199505;28;20414;-58
2022/05/16 01:31:58;;;;;;;17.80;4.53;;;;;;;17.54;49.18;101423.44;5207221;28;20488;-57
2022/05/16 01:34:30;;;;;;;17.70;4.78;;;;;;;17.25;49.29;101382.34;5209166;28;21252;-59
2022/05/16 01:37:03;;;;;;;18.58;4.88;;;;;;;17.43;49.36;101411.34;5191693;28;20506;-50
2022/05/16 01:39:37;;;;;;;15.70;5.07;;;;;;;16.99;49.34;101351.50;5204635;28;20461;-49
2022/05/16 01:42:15;;;;;;;14.38;4.70;;;;;;;17.39;49.56;101405.53;5209818;28;20416;-52
2022/05/16 01:44:47;;;;;;;12.77;4.22;;;;;;;17.27;49.43;101390.97;5200637;28;20502;-51
2022/05/16 01:47:20;;;;;;;15.52;4.60;;;;;;;17.33;49.48;101405.44;5219574;28;20405;-53
2022/05/16 01:49:53;;;;;;;13.53;4.13;;;;;;;17.32;49.61;101393.94;5213106;28;20415;-52
2022/05/16 01:52:25;;;;;;;12.45;4.38;;;;;;;17.29;49.63;101389.78;5213659;28;20514;-52
2022/05/16 01:55:01;;;;;;;14.70;4.75;;;;;;;17.28;49.68;101387.28;5207420;28;20425;-49
2022/05/16 01:57:34;;;;;;;14.75;4.10;;;;;;;17.05;49.81;101361.47;5209709;28;20399;-55
2022/05/16 02:00:11;;;;;;;14.65;5.20;;;;;;;17.12;49.77;101372.25;5210749;28;20421;-54
2022/05/16 02:02:44;;;;;;;12.60;4.25;;;;;;;17.08;49.98;101370.13;5208866;28;20516;-56
2022/05/16 02:05:20;;;;;;;11.52;4.50;;;;;;;17.15;49.99;101381.72;5210991;28;20402;-52
2022/05/16 02:07:53;;;;;;;16.77;4.60;;;;;;;17.15;49.97;101376.38;5201131;28;20853;-49
2022/05/16 02:10:29;;;;;;;13.85;4.85;;;;;;;17.10;50.08;101368.13;5212652;28;20409;-52
2022/05/16 02:13:05;;;;;;;16.70;5.15;;;;;;;17.12;50.17;101366.91;5211520;28;20415;-50
2022/05/16 02:15:41;;;;;;;14.45;5.38;;;;;;;17.04;50.36;101359.81;5211877;28;20499;-52
2022/05/16 02:18:14;;;;;;;17.20;5.63;;;;;;;16.75;50.55;101311.63;5213233;28;20455;-52
2022/05/16 02:20:46;;;;;;;16.65;4.97;;;;;;;17.01;50.38;101354.81;5211502;28;20909;-53
2022/05/16 02:26:10;;;;;;;13.52;4.10;;;;;;;16.94;50.57;101353.03;5207939;28;20484;-52
2022/05/16 02:28:43;;;;;;;10.55;4.13;;;;;;;16.96;50.79;101353.69;5211237;28;20528;-51
2022/05/16 02:31:15;;;;;;;15.33;4.33;;;;;;;16.93;50.64;101354.88;5210997;28;20423;-53
2022/05/16 02:33:48;;;;;;;17.02;5.40;;;;;;;16.67;50.88;101314.38;5209146;28;20434;-52
2022/05/16 02:36:20;;;;;;;18.70;4.95;;;;;;;16.89;51.00;101350.91;5212402;28;20552;-54
2022/05/16 02:38:53;;;;;;;16.90;5.22;;;;;;;16.86;51.06;101351.28;5207506;28;20546;-50
2022/05/16 02:41:27;;;;;;;15.85;5.22;;;;;;;16.77;51.14;101341.69;5208382;28;20419;-52
2022/05/16 02:44:02;;;;;;;18.80;4.75;;;;;;;16.85;51.22;101348.78;5208694;28;20402;-47
2022/05/16 02:46:35;;;;;;;16.05;5.28;;;;;;;16.85;51.36;101354.97;5194817;28;20419;-51
2022/05/16 02:49:08;;;;;;;18.52;4.97;;;;;;;16.77;51.30;101341.69;5210933;28;20493;-52
2022/05/16 02:51:40;;;;;;;14.57;4.93;;;;;;;16.82;51.33;101349.97;5209015;28;20605;-52
2022/05/16 02:54:13;;;;;;;21.77;6.38;;;;;;;16.81;51.61;101342.97;5214059;28;20508;-51
2022/05/16 02:56:47;;;;;;;16.05;5.25;;;;;;;16.81;51.77;101350.97;5209850;28;20408;-52
2022/05/16 02:59:19;;;;;;;15.80;5.40;;;;;;;16.63;51.70;101313.06;5201704;28;20834;-54
2022/05/16 03:01:52;;;;;;;18.23;5.18;;;;;;;16.73;51.85;101324.34;5210437;28;20883;-52
2022/05/16 03:04:24;;;;;;;17.08;4.97;;;;;;;16.50;51.83;101281.66;5209997;28;20954;-50
2022/05/16 03:06:57;;;;;;;24.88;5.38;;;;;;;16.82;51.92;101328.66;5214964;28;20559;-50
2022/05/16 03:09:30;;;;;;;14.70;5.65;;;;;;;16.58;51.97;101289.63;5211411;28;20420;-53
2022/05/16 03:12:05;;;;;;;19.05;6.10;;;;;;;16.79;52.12;101324.50;5209631;28;20592;-53
2022/05/16 03:14:38;;;;;;;17.10;5.32;;;;;;;16.72;52.20;101312.00;5209936;28;22261;-51
2022/05/16 03:17:10;;;;;;;15.33;5.47;;;;;;;16.74;52.31;101310.81;5212701;28;20448;-54
2022/05/16 03:19:43;;;;;;;12.68;4.90;;;;;;;16.58;52.34;101294.94;5209263;28;20416;-53
2022/05/16 03:22:15;;;;;;;17.60;6.03;;;;;;;16.67;52.53;101309.06;5204746;28;20426;-52
2022/05/16 03:24:48;;;;;;;18.85;6.13;;;;;;;16.64;52.47;101309.41;5211435;28;20815;-52
2022/05/16 03:27:22;;;;;;;12.77;5.70;;;;;;;16.65;52.55;101311.06;5212870;28;22321;-52
2022/05/16 03:29:55;;;;;;;12.05;5.80;;;;;;;16.51;52.79;101302.84;5211012;28;20491;-50
2022/05/16 03:32:27;;;;;;;19.02;6.28;;;;;;;16.31;53.02;101269.63;5206839;28;20419;-51
2022/05/16 03:35:00;;;;;;;15.82;5.60;;;;;;;16.58;52.77;101306.44;5208865;28;20408;-51
2022/05/16 03:37:33;;;;;;;19.63;5.85;;;;;;;16.57;52.78;101309.31;5204653;28;20492;-51
2022/05/16 03:42:59;;;;;;;17.80;6.10;;;;;;;16.41;52.97;101286.22;5208286;28;20502;-50
2022/05/16 03:45:32;;;;;;;14.00;5.93;;;;;;;16.53;53.09;101300.81;5196566;28;20443;-50
2022/05/16 03:48:05;;;;;;;19.98;6.90;;;;;;;16.47;53.09;101304.19;5209516;28;20786;-50
2022/05/16 03:50:38;;;;;;;21.48;7.18;;;;;;;16.49;53.21;101296.84;5202443;28;20415;-54
2022/05/16 03:53:10;;;;;;;15.83;6.40;;;;;;;16.39;53.27;101290.91;5211826;28;20989;-53
2022/05/16 03:55:43;;;;;;;17.95;5.68;;;;;;;16.48;53.37;101295.19;5212202;28;20411;-49
2022/05/16 03:58:16;;;;;;;18.17;6.20;;;;;;;16.46;53.30;101307.84;5210600;28;20426;-52
2022/05/16 04:00:57;;;;;;;22.65;5.72;;;;;;;16.49;53.47;101296.84;5198186;28;20468;-51
2022/05/16 04:03:30;;;;;;;16.85;6.50;;;;;;;16.46;53.40;101291.88;5198142;28;20484;-51
2022/05/16 04:06:02;;;;;;;21.55;6.45;;;;;;;15.81;53.27;101180.38;5206919;28;20417;-52
2022/05/16 04:08:35;;;;;;;25.38;6.20;;;;;;;16.36;53.66;101267.28;5195493;28;20850;-52
2022/05/16 04:11:08;;;;;;;21.67;6.73;;;;;;;16.05;53.68;101214.84;5206627;28;20429;-53
2022/05/16 04:13:42;;;;;;;15.18;6.82;;;;;;;16.52;53.61;101312.47;5208648;28;20471;-51
2022/05/16 04:16:15;;;;;;;20.25;7.53;;;;;;;16.55;53.63;101284.63;5213825;28;20786;-53
2022/05/16 04:18:48;;;;;;;19.10;6.60;;;;;;;16.52;53.69;101277.00;5195718;28;20430;-53
2022/05/16 04:21:21;;;;;;;15.73;5.97;;;;;;;16.55;53.80;101301.47;5198955;28;21002;-56
2022/05/16 04:23:53;;;;;;;17.90;6.07;;;;;;;16.59;53.72;101286.75;5207663;28;20490;-55
2022/05/16 04:26:26;;;;;;;17.15;7.32;;;;;;;16.69;53.83;101313.22;5198121;28;20534;-54
2022/05/16 04:29:00;;;;;;;17.20;6.38;;;;;;;16.75;53.86;101309.84;5204976;28;20409;-54
2022/05/16 04:31:32;;;;;;;17.75;6.30;;;;;;;16.66;53.73;101275.38;5203155;28;20421;-56
2022/05/16 04:34:09;;;;;;;16.10;6.13;;;;;;;16.82;53.77;101275.28;5201785;28;20518;-49
2022/05/16 04:36:41;;;;;;;16.92;5.75;;;;;;;16.92;53.76;101286.53;5185283;28;20535;-53
2022/05/16 04:39:14;;;;;;;19.55;6.35;;;;;;;17.01;53.67;101288.13;5210979;28;20442;-52
2022/05/16 04:44:38;;;;;;;12.52;5.43;;;;;;;17.33;53.59;101290.66;5198771;28;20416;-52
2022/05/16 04:47:11;;;;;;;15.80;6.05;;;;;;;17.38;53.46;101291.75;5200934;28;20438;-53
2022/05/16 04:49:44;;;;;;;14.00;5.33;;;;;;;17.56;53.32;101304.75;5209442;28;20531;-50
2022/05/16 04:52:16;;;;;;;15.93;5.57;;;;;;;17.68;53.29;101299.75;5193785;28;20440;-50
2022/05/16 04:54:49;;;;;;;10.98;5.22;;;;;;;17.80;53.17;101303.66;5195363;28;20498;-53
2022/05/16 04:57:21;;;;;;;15.00;5.15;;;;;;;17.84;52.95;101304.94;5195038;28;20644;-53
2022/05/16 04:59:55;;;;;;;21.42;5.40;;;;;;;18.00;52.99;101295.06;5204971;28;20394;-54
2022/05/16 05:02:28;;;;;;;12.63;5.13;;;;;;;18.05;52.81;101295.31;5182420;28;21117;-54
2022/05/16 05:05:00;;;;;;;12.73;5.80;;;;;;;18.15;52.72;101293.19;5198935;28;20507;-54
2022/05/16 05:07:33;;;;;;;14.00;5.18;;;;;;;18.26;52.52;101307.91;5196506;28;20435;-53
2022/05/16 05:16:03;;;;;;;15.38;5.20;;;;;;;18.55;51.93;101298.94;5197256;28;20501;-53
2022/05/16 05:18:38;;;;;;;19.13;6.00;;;;;;;18.64;51.86;101287.94;5162372;28;20893;-53
2022/05/16 05:21:11;;;;;;;14.63;5.75;;;;;;;18.20;51.68;101202.53;5166093;28;20477;-52
2022/05/16 05:23:44;;;;;;;15.13;5.30;;;;;;;19.20;51.17;101279.13;5193099;28;20409;-54
2022/05/16 05:26:17;;;;;;;17.80;5.78;;;;;;;20.44;49.69;101254.06;5192487;28;20487;-52
2022/05/16 05:28:49;;;;;;;14.25;5.00;;;;;;;21.85;47.74;101221.41;5156837;28;20512;-55
2022/05/16 05:31:25;;;;;;;11.83;4.70;;;;;;;23.62;46.29;101275.03;5171919;28;20411;-55
2022/05/16 05:33:58;;;;;;;14.65;4.90;;;;;;;24.90;44.61;101244.16;5149816;28;20472;-56
2022/05/16 05:36:35;;;;;;;14.48;4.90;;;;;;;25.87;43.24;101248.94;5180017;28;20445;-56
2022/05/16 05:39:08;;;;;;;13.40;4.32;;;;;;;26.25;42.97;101293.50;5187540;28;20430;-54
2022/05/16 05:41:41;;;;;;;13.27;4.22;;;;;;;26.51;42.65;101283.13;5185716;28;20471;-54
2022/05/16 05:44:13;;;;;;;12.05;3.78;;;;;;;27.28;41.40;101268.88;5185569;28;20417;-57
2022/05/16 05:46:48;;;;;;;12.30;4.07;;;;;;;28.24;40.29;101281.94;5205623;28;20413;-58
2022/05/16 05:49:22;;;;;;;12.55;4.05;;;;;;;28.86;39.35;101277.88;5188491;28;20428;-58
2022/05/16 05:51:55;;;;;;;12.13;4.47;;;;;;;29.87;38.24;101287.69;5162997;28;20492;-56
2022/05/16 05:54:31;;;;;;;10.57;3.92;;;;;;;30.63;37.14;101297.91;5178043;28;20425;-59
2022/05/16 05:57:07;;;;;;;11.60;4.03;;;;;;;30.97;36.65;101286.41;5184277;28;20893;-58
2022/05/16 05:59:40;;;;;;;11.43;4.13;;;;;;;31.40;36.17;101287.72;5163979;28;20425;-58
2022/05/16 06:06:00;;;;;;;17.40;3.97;;;;;;;32.68;34.36;101283.41;5193057;28;20534;-60
2022/05/16 06:08:41;;;;;;;9.82;3.35;;;;;;;32.37;34.16;101284.44;5186845;28;20427;-57
2022/05/16 06:11:14;;;;;;;9.27;3.72;;;;;;;32.06;34.07;101269.38;5187885;28;20816;-60
2022/05/16 06:13:46;;;;;;;12.27;4.07;;;;;;;31.43;34.30;101253.56;5174505;28;20421;-58
2022/05/16 06:16:37;;;;;;;9.90;3.47;;;;;;;31.54;34.09;101304.31;5190774;28;21164;-56
2022/05/16 06:19:26;;;;;;;15.00;4.10;;;;;;;31.68;33.74;101299.88;5192827;28;20426;-58
2022/05/16 06:21:58;;;;;;;10.07;2.80;;;;;;;31.43;33.55;101314.44;5178695;28;20421;-59
2022/05/16 06:27:21;;;;;;;15.50;4.18;;;;;;;30.50;33.91;101310.16;5189512;28;20413;-54
2022/05/16 06:29:54;;;;;;;11.70;3.85;;;;;;;30.39;33.80;101304.97;5182795;28;20512;-57
2022/05/16 06:32:29;;;;;;;14.63;4.07;;;;;;;30.05;33.88;101316.34;5191750;28;20408;-57
2022/05/16 06:35:03;;;;;;;12.48;3.85;;;;;;;29.42;34.20;101292.66;5199866;28;20419;-49
2022/05/16 06:37:36;;;;;;;14.63;4.20;;;;;;;28.80;34.38;101287.06;5194035;28;20776;-56
2022/05/16 06:40:09;;;;;;;16.45;4.25;;;;;;;28.42;34.60;101314.22;5191604;28;20430;-54
2022/05/16 06:42:42;;;;;;;14.70;4.35;;;;;;;28.09;34.79;101307.09;5171888;28;20415;-55
2022/05/16 06:45:18;;;;;;;19.27;3.97;;;;;;;27.75;34.88;101317.22;5201381;28;20432;-53
2022/05/16 06:47:51;;;;;;;12.70;3.65;;;;;;;27.44;34.92;101316.00;5202634;28;20427;-54
2022/05/16 06:50:25;;;;;;;15.57;4.00;;;;;;;27.26;34.93;101330.69;5202263;28;20515;-54
2022/05/16 06:52:58;;;;;;;8.13;3.30;;;;;;;27.05;35.16;101330.34;5199430;28;20418;-52
2022/05/16 06:55:31;;;;;;;14.70;3.90;;;;;;;26.71;35.42;101339.56;5200651;28;20426;-54
2022/05/16 06:58:04;;;;;;;11.27;3.65;;;;;;;26.53;35.55;101338.72;5196423;28;20429;-55
2022/05/16 07:00:37;;;;;;;11.27;4.25;;;;;;;26.12;35.93;101332.50;5199371;28;20435;-54
2022/05/16 07:03:11;;;;;;;12.05;4.93;;;;;;;25.76;36.25;101333.63;5204381;28;20411;-53
2022/05/16 07:05:46;;;;;;;11.07;4.03;;;;;;;25.33;36.32;101334.06;5206909;28;20414;-53
2022/05/16 07:08:20;;;;;;;14.38;4.88;;;;;;;25.30;36.48;101330.78;5193454;28;20502;-53
2022/05/16 07:10:53;;;;;;;13.37;4.43;;;;;;;25.16;36.62;101331.25;5206985;28;20409;-56
2022/05/16 07:13:28;;;;;;;13.60;4.10;;;;;;;25.00;36.83;101340.84;5204267;28;20416;-54
2022/05/16 07:16:00;;;;;;;13.05;4.97;;;;;;;24.92;36.94;101338.47;5192863;28;20495;-55
2022/05/16 07:18:33;;;;;;;15.07;4.38;;;;;;;24.78;36.96;101327.06;5210476;28;20470;-55
2022/05/16 07:21:08;;;;;;;10.15;4.25;;;;;;;24.80;37.02;101333.88;5199027;28;20419;-57
2022/05/16 07:23:40;;;;;;;11.93;4.90;;;;;;;24.71;37.07;101332.56;5198226;28;20455;-57
2022/05/16 07:29:03;;;;;;;11.60;4.40;;;;;;;24.44;37.29;101323.25;5196280;28;20726;-50
2022/05/16 07:31:36;;;;;;;9.98;4.15;;;;;;;24.31;37.43;101333.13;5206906;28;20512;-52
2022/05/16 07:34:08;;;;;;;13.50;4.43;;;;;;;24.19;37.57;101329.56;5204267;28;20433;-54
2022/05/16 07:36:42;;;;;;;14.82;4.95;;;;;;;24.08;37.70;101322.22;5203897;28;20854;-53
2022/05/16 07:39:15;;;;;;;10.57;4.30;;;;;;;24.15;37.72;101336.44;5196289;28;20427;-53
2022/05/16 07:41:49;;;;;;;11.93;4.50;;;;;;;24.05;37.76;101317.28;5219724;28;20569;-50
2022/05/16 07:44:22;;;;;;;15.82;4.57;;;;;;;24.05;37.86;101330.78;5198706;28;23171;-51
2022/05/16 07:46:55;;;;;;;9.93;4.15;;;;;;;24.10;37.84;101330.94;5204477;28;20425;-50
2022/05/16 07:49:27;;;;;;;9.83;4.20;;;;;;;24.19;37.88;101331.41;5203345;28;20967;-52
2022/05/16 07:52:01;;;;;;;13.07;4.53;;;;;;;24.21;37.86;101322.03;5208397;28;20921;-52
2022/05/16 07:54:34;;;;;;;12.98;4.30;;;;;;;24.21;37.67;101313.94;5204576;28;20421;-55
2022/05/16 07:57:07;;;;;;;15.33;4.70;;;;;;;24.39;37.95;101329.28;5203879;28;20424;-51
2022/05/16 07:59:41;;;;;;;14.17;4.83;;;;;;;24.53;37.65;101332.66;5208402;28;20429;-53
2022/05/16 08:02:15;;;;;;;13.18;4.57;;;;;;;24.64;37.79;101326.44;5202786;28;21809;-53
2022/05/16 08:04:48;;;;;;;14.40;4.72;;;;;;;24.72;37.50;101328.81;5198875;28;20425;-50
2022/05/16 08:07:22;;;;;;;13.60;5.10;;;;;;;24.91;37.53;101336.84;5204897;28;20421;-51
2022/05/16 08:12:44;;;;;;;15.75;4.65;;;;;;;24.85;37.58;101334.00;5207485;28;20420;-51
2022/05/16 08:15:16;;;;;;;18.92;5.80;;;;;;;24.93;37.73;101350.91;5204885;28;20540;-53
2022/05/16 08:17:48;;;;;;;17.23;5.43;;;;;;;24.94;37.74;101352.59;5205394;28;20433;-51
2022/05/16 08:20:23;;;;;;;22.42;6.15;;;;;;;24.66;37.60;101313.53;5203839;28;20413;-53
2022/05/16 08:22:57;;;;;;;12.90;5.35;;;;;;;24.76;37.70;101330.00;5204572;28;20881;-52
2022/05/16 08:25:29;;;;;;;18.92;5.80;;;;;;;25.04;37.69;101363.63;5201537;28;20431;-54
2022/05/16 08:28:02;;;;;;;17.17;5.50;;;;;;;24.55;37.57;101292.72;5203274;28;20408;-49
2022/05/16 08:30:34;;;;;;;16.23;4.78;;;;;;;25.17;37.79;101376.94;5197282;28;20441;-48
2022/05/16 08:33:07;;;;;;;18.70;5.45;;;;;;;25.10;37.73;101365.41;5202301;28;20427;-50
2022/05/16 08:35:40;;;;;;;12.53;5.23;;;;;;;25.08;37.70;101381.03;5204391;28;21025;-50
2022/05/16 08:41:09;;;;;;;16.33;5.50;;;;;;;24.98;37.99;101392.41;5202030;28;20832;-51
2022/05/16 08:43:52;;;;;;;13.23;4.40;;;;;;;24.95;38.17;101392.06;5204442;28;20913;-52
2022/05/16 08:46:37;;;;;;;14.15;5.25;;;;;;;24.94;38.29;101395.81;5184800;28;20556;-54
2022/05/16 08:49:28;;;;;;;20.33;5.68;;;;;;;24.96;38.22;101394.53;5201043;28;20422;-52
2022/05/16 08:52:07;;;;;;;16.48;5.40;;;;;;;24.92;38.15;101376.31;5207575;28;20435;-52
2022/05/16 08:54:48;;;;;;;11.50;5.50;;;;;;;25.14;38.08;101401.75;5200415;28;20408;-49
2022/05/16 08:57:31;;;;;;;23.60;6.35;;;;;;;25.25;38.00;101395.53;5206281;28;20929;-53
2022/05/16 09:00:10;;;;;;;20.38;5.20;;;;;;;25.47;37.88;101400.38;5203508;28;20421;-50
2022/05/16 09:02:45;;;;;;;21.30;5.53;;;;;;;25.67;37.87;101395.41;5199968;28;20522;-53
2022/05/16 09:05:24;;;;;;;14.18;5.00;;;;;;;25.77;37.74;101398.34;5204368;28;20833;-53
2022/05/16 09:07:59;;;;;;;17.23;5.55;;;;;;;25.85;37.82;101407.19;5201002;28;20799;-52
2022/05/16 09:10:50;;;;;;;16.07;5.60;;;;;;;25.83;37.74;101403.88;5201090;28;20521;-53
2022/05/16 09:13:35;;;;;;;15.13;5.15;;;;;;;25.87;37.72;101400.47;5201068;28;20406;-51
2022/05/16 09:16:24;;;;;;;17.17;5.20;;;;;;;25.91;37.68;101408.94;5203982;28;20448;-52
2022/05/16 09:19:03;;;;;;;14.43;5.40;;;;;;;25.88;37.67;101406.72;5204078;28;20502;-55
2022/05/16 09:21:45;;;;;;;20.65;5.47;;;;;;;25.89;37.78;101411.91;5201045;28;20424;-55
2022/05/16 09:24:28;;;;;;;17.90;4.97;;;;;;;25.73;37.88;101393.63;5205793;28;20435;-53
2022/05/16 09:27:08;;;;;;;18.55;5.30;;;;;;;26.11;37.72;101409.38;5205718;28;20425;-54
2022/05/16 09:29:45;;;;;;;15.23;5.23;;;;;;;26.31;37.35;101395.41;5185286;28;20436;-52
2022/05/16 09:32:31;;;;;;;11.27;5.25;;;;;;;26.56;37.21;101383.44;5208465;28;20431;-50
2022/05/16 09:35:12;;;;;;;23.88;5.55;;;;;;;27.07;36.87;101396.00;5185333;28;20501;-56
2022/05/16 09:37:47;;;;;;;15.73;5.53;;;;;;;27.37;36.57;101403.00;5205081;28;20433;-55
2022/05/16 09:40:23;;;;;;;14.43;4.95;;;;;;;27.68;36.15;101408.88;5204470;28;20416;-51
2022/05/16 09:42:57;;;;;;;17.05;4.80;;;;;;;27.90;36.18;101401.59;5202935;28;20429;-55
2022/05/16 09:45:30;;;;;;;15.32;5.00;;;;;;;28.17;35.83;101379.94;5201884;28;20412;-53
2022/05/16 09:48:17;;;;;;;13.48;5.55;;;;;;;28.77;35.54;101423.50;5207348;28;20419;-54
2022/05/16 09:50:59;;;;;;;14.27;4.65;;;;;;;29.01;35.04;101415.84;5203186;28;20432;-52
2022/05/16 09:53:39;;;;;;;13.95;5.15;;;;;;;29.10;34.85;101404.25;5201402;28;20764;-50
2022/05/16 09:56:22;;;;;;;15.50;6.00;;;;;;;29.38;34.98;101435.75;5204419;28;20478;-54
2022/05/16 09:59:00;;;;;;;12.02;5.30;;;;;;;29.06;34.82;101372.41;5203531;28;20483;-51
2022/05/16 10:01:37;;;;;;;14.20;5.53;;;;;;;29.45;34.82;101448.31;5205337;28;20457;-51
2022/05/16 10:04:13;;;;;;;16.65;6.40;;;;;;;29.36;34.76;101453.41;5203435;28;20825;-51
2022/05/16 10:07:00;;;;;;;21.33;5.55;;;;;;;29.36;34.86;101456.13;5200451;28;20427;-54
2022/05/16 10:09:37;;;;;;;11.95;4.85;;;;;;;29.47;34.77;101470.66;5185398;28;21014;-50
2022/05/16 10:12:12;;;;;;;14.85;4.43;;;;;;;29.63;34.60;101461.53;5198657;28;20504;-54
2022/05/16 10:14:47;;;;;;;12.93;4.57;;;;;;;29.91;34.44;101471.22;5198453;28;20417;-54
2022/05/16 10:17:32;;;;;;;13.20;3.80;;;;;;;29.90;34.42;101461.44;5201928;28;21139;-51
2022/05/16 10:20:08;;;;;;;15.68;3.90;;;;;;;30.21;34.38;101489.66;5199450;28;20935;-54
2022/05/16 10:22:41;;;;;;;10.32;3.78;;;;;;;30.28;34.12;101489.41;5204977;28;20419;-54
2022/05/16 10:25:19;;;;;;;12.30;3.67;;;;;;;30.38;34.06;101477.75;5202780;28;20419;-58
2022/05/16 10:27:55;;;;;;;8.85;4.50;;;;;;;30.53;34.02;101483.25;5192306;28;20419;-57
2022/05/16 10:30:32;;;;;;;13.38;4.50;;;;;;;30.53;33.74;101496.88;5196330;28;20429;-54
2022/05/16 10:36:00;;;;;;;14.40;5.55;;;;;;;30.40;34.08;101498.19;5199099;28;20411;-53
2022/05/16 10:38:43;;;;;;;14.60;4.97;;;;;;;30.31;34.05;101494.34;5188731;28;20423;-57
2022/05/16 10:41:25;;;;;;;9.40;4.78;;;;;;;30.18;34.04;101511.16;5182490;28;20829;-49
2022/05/16 10:44:10;;;;;;;13.00;4.45;;;;;;;29.98;34.34;101506.38;5193987;28;20437;-51
2022/05/16 10:47:00;;;;;;;10.80;3.47;;;;;;;29.61;34.52;101469.97;5200265;28;20416;-50
2022/05/16 10:49:40;;;;;;;10.70;3.83;;;;;;;29.81;34.40;101507.38;5201273;28;20425;-53
2022/05/16 10:52:33;;;;;;;15.88;3.60;;;;;;;29.96;34.40;101525.72;5204425;28;20508;-53
2022/05/16 10:55:07;;;;;;;10.65;3.22;;;;;;;30.01;34.38;101494.97;5190433;28;20409;-51
2022/05/16 10:58:11;;;;;;;11.27;3.45;;;;;;;30.20;34.16;101509.84;5200714;28;20425;-49
2022/05/16 11:00:53;;;;;;;9.18;2.95;;;;;;;30.12;34.41;101512.22;5200493;28;20777;-53
2022/05/16 11:04:19;;;;;;;8.43;3.25;;;;;;;29.80;34.51;101505.75;5204421;28;20475;-52
2022/05/16 11:07:15;;;;;;;7.35;3.00;;;;;;;29.67;34.86;101522.56;5199422;28;21074;-50
2022/05/16 11:09:57;;;;;;;8.85;3.35;;;;;;;29.42;35.04;101521.25;5201068;28;20805;-54
2022/05/16 11:12:36;;;;;;;9.18;2.95;;;;;;;29.17;35.32;101540.88;5201085;28;20433;-52
2022/05/16 11:15:24;;;;;;;12.68;3.30;;;;;;;28.84;35.73;101558.16;5197883;28;20436;-51
2022/05/16 11:18:03;;;;;;;15.38;4.22;;;;;;;28.34;36.24;101553.72;5192378;28;20422;-51
2022/05/16 11:20:42;;;;;;;20.20;5.33;;;;;;;27.80;36.84;101553.47;5190571;28;20432;-52
2022/05/16 11:23:26;;;;;;;16.27;5.97;;;;;;;27.22;37.79;101538.34;5196108;28;20516;-54
2022/05/16 11:26:08;;;;;;;15.63;7.80;;;;;;;27.05;38.45;101566.22;5186110;28;20905;-52
2022/05/16 11:29:17;;;;;;;19.77;8.67;;;;;;;26.51;39.22;101535.88;5195852;28;20513;-49
2022/05/16 11:31:48;;;;;;;20.50;10.43;;;;;;;26.24;39.82;101546.38;5187804;28;21013;-51
2022/05/16 11:34:31;;;;;;;28.47;11.13;;;;;;;26.17;40.34;101562.75;5196387;28;20436;-52
2022/05/16 11:37:16;;;;;;;24.23;12.57;;;;;;;26.10;40.70;101550.38;5193271;28;20485;-53
2022/05/16 11:39:54;;;;;;;26.02;13.55;;;;;;;26.04;40.92;101544.00;5196198;28;20429;-50
2022/05/16 11:42:38;;;;;;;27.98;14.00;;;;;;;26.15;41.50;101554.03;5191231;28;20412;-51
2022/05/16 11:45:28;;;;;;;26.55;14.05;;;;;;;26.17;41.65;101557.34;5192683;28;20413;-50
2022/05/16 11:48:21;;;;;;;24.92;13.80;;;;;;;26.14;41.97;101556.97;5194826;28;20935;-53
2022/05/16 11:51:03;;;;;;;21.50;12.07;;;;;;;26.06;42.37;101539.19;5188403;28;20417;-51
2022/05/16 11:53:50;;;;;;;23.38;13.50;;;;;;;26.00;42.78;101559.09;5180565;28;20440;-51
2022/05/16 12:02:22;;;;;;;27.43;13.93;;;;;;;25.83;43.21;101587.88;5167718;28;20987;-52
2022/05/16 12:05:07;;;;;;;28.90;13.77;;;;;;;25.58;43.39;101586.19;5189293;28;20917;-51
2022/05/16 12:07:49;;;;;;;34.17;16.13;;;;;;;25.39;43.86;101593.50;5185748;28;20830;-53
2022/05/16 12:10:27;;;;;;;27.33;14.57;;;;;;;25.18;43.89;101600.28;5190964;28;20421;-52
2022/05/16 12:13:23;;;;;;;29.30;14.57;;;;;;;24.98;44.38;101596.97;5190867;28;20947;-49
2022/05/16 12:16:18;;;;;;;24.30;11.55;;;;;;;24.74;44.65;101615.72;5186586;28;20412;-52
2022/05/16 12:19:13;;;;;;;25.52;12.18;;;;;;;24.50;44.77;101597.75;5177784;28;20425;-50
2022/05/16 12:21:57;;;;;;;27.95;12.55;;;;;;;24.42;45.03;101606.13;5183350;28;20425;-48
2022/05/16 12:24:58;;;;;;;20.98;11.55;;;;;;;24.31;44.88;101618.44;5185527;28;20442;-53
2022/05/16 12:27:38;;;;;;;25.33;13.20;;;;;;;24.05;45.20;101604.13;5192362;28;20432;-48
2022/05/16 12:30:14;;;;;;;32.53;15.23;;;;;;;23.67;45.35;101580.75;5196250;28;20437;-51
2022/05/16 12:32:54;;;;;;;27.08;14.63;;;;;;;23.67;45.73;101631.16;5197870;28;20496;-51
2022/05/16 12:35:47;;;;;;;33.72;16.40;;;;;;;23.37;46.05;101628.22;5189405;28;20425;-49
2022/05/16 12:38:21;;;;;;;32.60;16.67;;;;;;;23.01;46.19;101614.31;5188057;28;20533;-52
2022/05/16 12:41:40;;;;;;;33.97;16.67;;;;;;;23.00;46.39;101627.97;5192466;28;23337;-50